SAEZ/EZE METAR and TAF weather

Enter ICAO airport designator
Station Type Date Time Source
SAEZ METAR 2020/04/05 22:00 UTC NOAA

SAEZ 052200Z 02004KT CAVOK 22/16 Q1009 NOSIG


Station Type Date Time Source
SAEZ Decoded METAR 2020/04/05 22:00 UTC NOAA

Ezeiza Aerodrome, Argentina (SAEZ) 34-49S 058-32W 20M
Apr 05, 2020 - 06:00 PM EDT / 2020.04.05 2200 UTC
Wind: from the NNE (020 degrees) at 5 MPH (4 KT):0
Visibility: greater than 7 mile(s):0
Temperature: 71 F (22 C)
Dew Point: 60 F (16 C)
Relative Humidity: 68%
Pressure (altimeter): 29.80 in. Hg (1009 hPa)
ob: SAEZ 052200Z 02004KT CAVOK 22/16 Q1009 NOSIG
cycle: 22

Station Type Date Time Source
SAEZ TAF 2020/04/05 18:16 UTC NOAA

TAF SAEZ 051700Z 0518/0618 36010KT CAVOK TX25/0518Z TN13/0610Z
BECMG 0519/0521 9999 SCT040 PROB30 0520/0600 8000 RADZ FEW020 SCT040
BECMG 0603/0605 27010KT 9999 SCT020
BECMG 0606/0609 18015G30KT CAVOK

Example: see airport list